Time;durP1;ratioP1;P1;durP2;ratioP2;P2;SDS_P1;SDS_P2;PMS_P1;PMS_P2;Temp;Humidity;BMP_temperature;BMP_pressure;BME280_temperature;BME280_humidity;BME280_pressure;Samples;Min_cycle;Max_cycle;Signal;HPM_P1;HPM_P2
2022/05/13 00:01:32;;;;;;;;;;;17.30;99.90;;;;;;4975961;28;20310;-84
2022/05/13 00:03:58;;;;;;;;;;;17.20;99.90;;;;;;4993268;28;19910;-85
2022/05/13 00:06:23;;;;;;;;;;;17.10;99.90;;;;;;4993264;28;20374;-84
2022/05/13 00:08:49;;;;;;;;;;;17.10;99.90;;;;;;4992026;28;19917;-84
2022/05/13 00:11:15;;;;;;;;;;;17.00;99.90;;;;;;4993154;28;19910;-84
2022/05/13 00:13:40;;;;;;;;;;;16.90;99.90;;;;;;4992913;28;19963;-84
2022/05/13 00:16:06;;;;;;;;;;;16.90;99.90;;;;;;4993148;28;19964;-85
2022/05/13 00:18:32;;;;;;;;;;;16.90;99.90;;;;;;4993167;28;19909;-85
2022/05/13 00:20:58;;;;;;;;;;;16.90;99.90;;;;;;4975154;28;19922;-84
2022/05/13 00:23:24;;;;;;;;;;;16.90;99.90;;;;;;4993000;28;20158;-84
2022/05/13 00:25:50;;;;;;;;;;;16.90;99.90;;;;;;4975112;28;20550;-84
2022/05/13 00:28:15;;;;;;;;;;;16.90;99.90;;;;;;4975399;28;19910;-84
2022/05/13 00:30:43;;;;;;;;;;;16.80;99.90;;;;;;4992794;28;19909;-84
2022/05/13 00:33:11;;;;;;;;;;;16.80;99.90;;;;;;4992691;28;19944;-84
2022/05/13 00:35:37;;;;;;;;;;;16.80;99.90;;;;;;4991492;28;20354;-84
2022/05/13 00:38:03;;;;;;;;;;;16.80;99.90;;;;;;4992775;28;19910;-84
2022/05/13 00:40:29;;;;;;;;;;;16.80;99.90;;;;;;4992608;28;20346;-84
2022/05/13 00:42:59;;;;;;;;;;;16.80;99.90;;;;;;4992440;28;19939;-84
2022/05/13 00:45:24;;;;;;;;;;;16.80;99.90;;;;;;4975019;28;19914;-85
2022/05/13 00:47:50;;;;;;;;;;;16.80;99.90;;;;;;4992302;28;19917;-84
2022/05/13 00:50:15;;;;;;;;;;;16.70;99.90;;;;;;4992195;28;20025;-84
2022/05/13 00:52:42;;;;;;;;;;;16.60;99.90;;;;;;4992154;28;19918;-84
2022/05/13 00:55:11;;;;;;;;;;;16.60;99.90;;;;;;4973674;28;19910;-85
2022/05/13 00:57:37;;;;;;;;;;;16.60;99.90;;;;;;4974485;28;19909;-84
2022/05/13 01:00:05;;;;;;;;;;;16.60;99.90;;;;;;4992191;28;20246;-84
2022/05/13 01:02:33;;;;;;;;;;;16.60;99.90;;;;;;4992348;28;19997;-85
2022/05/13 01:04:59;;;;;;;;;;;16.50;99.90;;;;;;4992182;28;20475;-84
2022/05/13 01:07:25;;;;;;;;;;;16.50;99.90;;;;;;4974536;28;19917;-85
2022/05/13 01:09:54;;;;;;;;;;;16.40;99.90;;;;;;4992230;28;19917;-84
2022/05/13 01:12:23;;;;;;;;;;;16.30;99.90;;;;;;4991896;28;19914;-84
2022/05/13 01:14:54;;;;;;;;;;;16.30;99.90;;;;;;4991857;28;19910;-84
2022/05/13 01:20:05;;;;;;;;;;;16.20;99.90;;;;;;4992532;28;19944;-84
2022/05/13 01:22:37;;;;;;;;;;;16.20;99.90;;;;;;4991894;28;19968;-84
2022/05/13 01:25:03;;;;;;;;;;;16.10;99.90;;;;;;4991677;28;20052;-84
2022/05/13 01:27:29;;;;;;;;;;;16.10;99.90;;;;;;4991581;28;20010;-85
2022/05/13 01:29:54;;;;;;;;;;;16.00;99.90;;;;;;4974060;28;20362;-85
2022/05/13 01:32:20;;;;;;;;;;;16.00;99.90;;;;;;4991420;28;19933;-84
2022/05/13 01:34:46;;;;;;;;;;;15.80;99.90;;;;;;4991456;28;19949;-84
2022/05/13 01:37:11;;;;;;;;;;;15.80;99.90;;;;;;4991627;28;19910;-85
2022/05/13 01:39:37;;;;;;;;;;;15.70;99.90;;;;;;4974238;28;19910;-84
2022/05/13 01:42:02;;;;;;;;;;;15.70;99.90;;;;;;4991526;28;19914;-84
2022/05/13 01:44:28;;;;;;;;;;;15.60;99.90;;;;;;4991429;28;19952;-84
2022/05/13 01:46:53;;;;;;;;;;;15.60;99.90;;;;;;4991270;28;20012;-84
2022/05/13 01:49:19;;;;;;;;;;;15.60;99.90;;;;;;4991335;28;20000;-84
2022/05/13 01:51:44;;;;;;;;;;;15.60;99.90;;;;;;4973698;28;20071;-84
2022/05/13 01:54:10;;;;;;;;;;;15.60;99.90;;;;;;4991564;28;20355;-84
2022/05/13 01:56:35;;;;;;;;;;;15.60;99.90;;;;;;4991209;28;19910;-85
2022/05/13 01:59:01;;;;;;;;;;;15.60;99.90;;;;;;4991739;28;19921;-84
2022/05/13 02:01:26;;;;;;;;;;;15.60;99.90;;;;;;4973774;28;19922;-84
2022/05/13 02:03:52;;;;;;;;;;;15.60;99.90;;;;;;4991045;28;20294;-85
2022/05/13 02:06:19;;;;;;;;;;;15.60;99.90;;;;;;4989708;28;19940;-85
2022/05/13 02:08:46;;;;;;;;;;;15.60;99.90;;;;;;4991420;28;19910;-85
2022/05/13 02:11:12;;;;;;;;;;;15.60;99.90;;;;;;4991193;28;19918;-84
2022/05/13 02:13:39;;;;;;;;;;;15.60;99.90;;;;;;4991353;28;19921;-84
2022/05/13 02:16:04;;;;;;;;;;;15.60;99.90;;;;;;4967703;28;20351;-84
2022/05/13 02:18:30;;;;;;;;;;;15.60;99.90;;;;;;4989742;28;19974;-84
2022/05/13 02:20:56;;;;;;;;;;;15.60;99.90;;;;;;4990685;28;19953;-84
2022/05/13 02:23:22;;;;;;;;;;;15.50;99.90;;;;;;4991307;28;20362;-85
2022/05/13 02:25:48;;;;;;;;;;;15.50;99.90;;;;;;4990744;28;19914;-84
2022/05/13 02:28:14;;;;;;;;;;;15.40;99.90;;;;;;4990832;28;19917;-85
2022/05/13 02:30:39;;;;;;;;;;;15.40;99.90;;;;;;4990901;28;19910;-85
2022/05/13 02:33:05;;;;;;;;;;;15.40;99.90;;;;;;4990948;28;20133;-85
2022/05/13 02:35:30;;;;;;;;;;;15.50;99.90;;;;;;4991116;28;19910;-85
2022/05/13 02:37:56;;;;;;;;;;;15.40;99.90;;;;;;4990757;28;19910;-84
2022/05/13 02:41:11;;;;;;;;;;;15.40;99.90;;;;;;4973010;28;19968;-84
2022/05/13 02:43:07;;;;;;;;;;;15.50;99.90;;;;;;4990353;28;20413;-84
2022/05/13 02:45:32;;;;;;;;;;;15.40;99.90;;;;;;4990438;28;19925;-85
2022/05/13 02:47:58;;;;;;;;;;;15.40;99.90;;;;;;4990419;28;19956;-85
2022/05/13 02:50:25;;;;;;;;;;;15.40;99.90;;;;;;4990368;28;19917;-84
2022/05/13 02:52:51;;;;;;;;;;;15.40;99.90;;;;;;4990701;28;20429;-85
2022/05/13 02:55:19;;;;;;;;;;;15.40;99.90;;;;;;4990594;28;19980;-84
2022/05/13 02:57:45;;;;;;;;;;;15.40;99.90;;;;;;4990294;28;19960;-84
2022/05/13 03:00:11;;;;;;;;;;;15.30;99.90;;;;;;4990239;28;19917;-84
2022/05/13 03:02:37;;;;;;;;;;;15.30;99.90;;;;;;4990426;28;19958;-85
2022/05/13 03:05:03;;;;;;;;;;;15.20;99.90;;;;;;4990663;28;19949;-85
2022/05/13 03:07:28;;;;;;;;;;;15.20;99.90;;;;;;4990502;28;19909;-85
2022/05/13 03:09:54;;;;;;;;;;;15.20;99.90;;;;;;4972943;28;19910;-85
2022/05/13 03:12:19;;;;;;;;;;;15.20;99.90;;;;;;4990620;28;20434;-85
2022/05/13 03:14:45;;;;;;;;;;;15.20;99.90;;;;;;4990426;28;20449;-85
2022/05/13 03:17:11;;;;;;;;;;;15.10;99.90;;;;;;4990462;28;19909;-85
2022/05/13 03:19:37;;;;;;;;;;;15.10;99.90;;;;;;4994146;28;19910;-85
2022/05/13 03:22:03;;;;;;;;;;;15.10;99.90;;;;;;4994088;28;19972;-85
2022/05/13 03:24:29;;;;;;;;;;;15.10;99.90;;;;;;4976322;28;19981;-85
2022/05/13 03:26:54;;;;;;;;;;;15.00;99.90;;;;;;4994110;28;20326;-85
2022/05/13 03:29:20;;;;;;;;;;;15.00;99.90;;;;;;4994162;28;19917;-85
2022/05/13 03:31:46;;;;;;;;;;;15.00;99.90;;;;;;4976414;28;20401;-84
2022/05/13 03:34:11;;;;;;;;;;;15.00;99.90;;;;;;4993971;28;19957;-85
2022/05/13 03:36:37;;;;;;;;;;;15.00;99.90;;;;;;4976389;28;19914;-85
2022/05/13 03:39:03;;;;;;;;;;;14.90;99.90;;;;;;4993947;28;19909;-85
2022/05/13 03:41:28;;;;;;;;;;;15.00;99.90;;;;;;4975998;28;19917;-85
2022/05/13 03:43:54;;;;;;;;;;;14.90;99.90;;;;;;4976333;28;20204;-85
2022/05/13 03:46:19;;;;;;;;;;;15.00;99.90;;;;;;4994085;28;19913;-85
2022/05/13 03:48:45;;;;;;;;;;;14.90;99.90;;;;;;4993607;28;19916;-85
2022/05/13 03:51:11;;;;;;;;;;;14.90;99.90;;;;;;4975947;28;19945;-85
2022/05/13 03:53:38;;;;;;;;;;;14.90;99.90;;;;;;4993517;28;20045;-85
2022/05/13 03:56:04;;;;;;;;;;;14.90;99.90;;;;;;4993336;28;19917;-84
2022/05/13 03:58:30;;;;;;;;;;;14.80;99.90;;;;;;4993367;28;19910;-85
2022/05/13 04:00:56;;;;;;;;;;;14.80;99.90;;;;;;4993614;28;19993;-85
2022/05/13 04:03:22;;;;;;;;;;;14.80;99.90;;;;;;4993710;28;19914;-85
2022/05/13 04:11:16;;;;;;;;;;;14.70;99.90;;;;;;4993519;28;19959;-85
2022/05/13 04:16:25;;;;;;;;;;;14.60;99.90;;;;;;4993395;28;19920;-84
2022/05/13 04:18:52;;;;;;;;;;;14.60;99.90;;;;;;4993256;28;19910;-85
2022/05/13 04:21:22;;;;;;;;;;;14.50;99.90;;;;;;4993437;28;19977;-84
2022/05/13 04:23:49;;;;;;;;;;;14.50;99.90;;;;;;4993168;28;19925;-85
2022/05/13 04:26:15;;;;;;;;;;;14.40;99.90;;;;;;4975229;28;19946;-85
2022/05/13 04:28:41;;;;;;;;;;;14.40;99.90;;;;;;4974492;28;20381;-85
2022/05/13 04:31:08;;;;;;;;;;;14.40;99.90;;;;;;4992444;28;20473;-85
2022/05/13 04:33:33;;;;;;;;;;;14.40;99.90;;;;;;4992839;28;19909;-85
2022/05/13 04:35:59;;;;;;;;;;;14.40;99.90;;;;;;4975329;28;20397;-85
2022/05/13 04:38:24;;;;;;;;;;;14.40;99.90;;;;;;4975075;28;19984;-85
2022/05/13 04:40:50;;;;;;;;;;;14.60;99.90;;;;;;4992617;28;19961;-85
2022/05/13 04:43:15;;;;;;;;;;;14.60;99.90;;;;;;4993025;28;19949;-85
2022/05/13 04:45:42;;;;;;;;;;;14.60;99.90;;;;;;4992696;28;19946;-85
2022/05/13 04:48:17;;;;;;;;;;;14.70;99.90;;;;;;4974833;28;19914;-85
2022/05/13 04:50:43;;;;;;;;;;;14.80;99.90;;;;;;4986912;28;19914;-85
2022/05/13 04:53:10;;;;;;;;;;;14.80;99.90;;;;;;4992599;28;19996;-85
2022/05/13 04:55:36;;;;;;;;;;;14.80;99.90;;;;;;4992212;28;20005;-85
2022/05/13 04:58:01;;;;;;;;;;;14.90;99.90;;;;;;4993596;28;19997;-85
2022/05/13 05:00:27;;;;;;;;;;;14.90;99.90;;;;;;4975089;28;20028;-85
2022/05/13 05:02:53;;;;;;;;;;;15.00;99.90;;;;;;4987420;28;19914;-86
2022/05/13 05:05:19;;;;;;;;;;;15.00;99.90;;;;;;4991889;28;19913;-86
2022/05/13 05:07:44;;;;;;;;;;;15.10;99.90;;;;;;4987744;28;19910;-86
2022/05/13 05:10:13;;;;;;;;;;;15.10;99.90;;;;;;4991506;28;19910;-86
2022/05/13 05:12:38;;;;;;;;;;;15.10;99.90;;;;;;4992210;28;19917;-85
2022/05/13 05:15:04;;;;;;;;;;;15.10;99.90;;;;;;4991956;28;20314;-85
2022/05/13 05:17:30;;;;;;;;;;;15.20;99.90;;;;;;4991621;28;20325;-86
2022/05/13 05:19:55;;;;;;;;;;;15.30;99.90;;;;;;4991716;28;19910;-86
2022/05/13 05:22:21;;;;;;;;;;;15.30;99.90;;;;;;4992442;28;20310;-86
2022/05/13 05:24:47;;;;;;;;;;;15.30;99.90;;;;;;4993553;28;19914;-86
2022/05/13 05:27:12;;;;;;;;;;;15.40;99.90;;;;;;4991668;28;19910;-85
2022/05/13 05:29:38;;;;;;;;;;;15.40;99.90;;;;;;4992211;28;19917;-85
2022/05/13 05:32:04;;;;;;;;;;;15.50;99.90;;;;;;4991799;28;19909;-85
2022/05/13 05:34:29;;;;;;;;;;;15.60;99.90;;;;;;4991765;28;19913;-85
2022/05/13 05:36:55;;;;;;;;;;;15.60;99.90;;;;;;4991911;28;19917;-85
2022/05/13 05:39:20;;;;;;;;;;;15.70;99.90;;;;;;4991646;28;20008;-85
2022/05/13 05:41:46;;;;;;;;;;;15.80;99.90;;;;;;4990915;28;19965;-85
2022/05/13 05:44:12;;;;;;;;;;;15.80;99.90;;;;;;4991499;28;19914;-85
2022/05/13 05:46:37;;;;;;;;;;;15.90;99.90;;;;;;4991428;28;20344;-85
2022/05/13 05:49:04;;;;;;;;;;;16.00;99.90;;;;;;4971612;28;20303;-85
2022/05/13 05:51:29;;;;;;;;;;;16.10;99.90;;;;;;4977125;28;20009;-85
2022/05/13 05:59:24;;;;;;;;;;;16.30;99.90;;;;;;4972143;28;20332;-85
2022/05/13 06:01:50;;;;;;;;;;;16.40;99.90;;;;;;4971638;28;19918;-85
2022/05/13 06:04:15;;;;;;;;;;;16.40;99.90;;;;;;4954286;28;20267;-85
2022/05/13 06:06:41;;;;;;;;;;;16.50;99.90;;;;;;4971758;28;19933;-85
2022/05/13 06:09:08;;;;;;;;;;;16.50;99.90;;;;;;4971995;28;20286;-86
2022/05/13 06:11:33;;;;;;;;;;;16.60;99.90;;;;;;4971706;28;19917;-85
2022/05/13 06:13:59;;;;;;;;;;;16.60;99.90;;;;;;4971674;28;20004;-85
2022/05/13 06:16:27;;;;;;;;;;;16.50;99.90;;;;;;4954286;28;19910;-85
2022/05/13 06:18:53;;;;;;;;;;;16.60;99.90;;;;;;4971705;28;20394;-85
2022/05/13 06:21:19;;;;;;;;;;;16.70;99.90;;;;;;4971321;28;19919;-85
2022/05/13 06:23:44;;;;;;;;;;;16.80;99.90;;;;;;4967556;28;19914;-87
2022/05/13 06:26:10;;;;;;;;;;;16.90;99.90;;;;;;4955894;28;19914;-89
2022/05/13 06:28:36;;;;;;;;;;;17.00;99.90;;;;;;4973096;28;20476;-90
2022/05/13 06:31:02;;;;;;;;;;;17.10;99.90;;;;;;4979749;28;19926;-90
2022/05/13 06:33:27;;;;;;;;;;;17.10;99.90;;;;;;4982143;28;19914;-89
2022/05/13 06:35:53;;;;;;;;;;;17.10;99.90;;;;;;4974972;28;20434;-90
2022/05/13 06:38:20;;;;;;;;;;;17.20;99.90;;;;;;4977053;28;19918;-89
2022/05/13 06:40:53;;;;;;;;;;;17.00;99.90;;;;;;4978895;28;20324;-90
2022/05/13 06:43:19;;;;;;;;;;;17.10;99.90;;;;;;4971796;28;20398;-90
2022/05/13 06:45:44;;;;;;;;;;;17.10;99.90;;;;;;4970605;28;19910;-90
2022/05/13 06:48:10;;;;;;;;;;;17.20;99.90;;;;;;4961605;28;19911;-88
2022/05/13 06:50:36;;;;;;;;;;;17.10;99.90;;;;;;4978778;28;19975;-91
2022/05/13 06:53:02;;;;;;;;;;;17.20;99.90;;;;;;4993640;28;19914;-87
2022/05/13 06:55:28;;;;;;;;;;;17.20;99.90;;;;;;4961473;28;20384;-89
2022/05/13 06:57:53;;;;;;;;;;;17.30;99.90;;;;;;4982069;28;19917;-88
2022/05/13 07:00:19;;;;;;;;;;;17.40;99.90;;;;;;4975755;28;19914;-88
2022/05/13 07:02:45;;;;;;;;;;;17.40;99.90;;;;;;4973512;28;20009;-88
2022/05/13 07:05:11;;;;;;;;;;;17.50;99.90;;;;;;4982789;28;20375;-88
2022/05/13 07:07:37;;;;;;;;;;;17.60;99.90;;;;;;4972716;28;19934;-88
2022/05/13 07:10:03;;;;;;;;;;;17.90;99.90;;;;;;4955255;28;19910;-90
2022/05/13 07:12:29;;;;;;;;;;;18.00;99.90;;;;;;4957902;28;20260;-89
2022/05/13 07:14:55;;;;;;;;;;;18.20;99.90;;;;;;4974530;28;19916;-88
2022/05/13 07:17:21;;;;;;;;;;;18.20;99.90;;;;;;4971774;28;19910;-88
2022/05/13 07:19:47;;;;;;;;;;;18.30;99.90;;;;;;4975460;28;19918;-88
2022/05/13 07:22:12;;;;;;;;;;;18.40;99.90;;;;;;4991449;28;19925;-88
2022/05/13 07:24:38;;;;;;;;;;;18.30;99.90;;;;;;4994476;28;20274;-87
2022/05/13 07:27:04;;;;;;;;;;;18.50;99.90;;;;;;4993516;28;20301;-88
2022/05/13 07:29:30;;;;;;;;;;;18.60;99.90;;;;;;4976929;28;20398;-88
2022/05/13 07:31:55;;;;;;;;;;;18.80;99.90;;;;;;4993809;28;19916;-88
2022/05/13 07:34:21;;;;;;;;;;;19.00;99.90;;;;;;4993583;28;19996;-88
2022/05/13 07:36:48;;;;;;;;;;;19.10;99.90;;;;;;4966732;28;19914;-87
2022/05/13 07:41:58;;;;;;;;;;;19.30;99.90;;;;;;4974652;28;19925;-88
2022/05/13 07:44:24;;;;;;;;;;;19.40;99.90;;;;;;4974961;28;19909;-89
2022/05/13 07:46:51;;;;;;;;;;;19.40;99.90;;;;;;4972609;28;19909;-79
2022/05/13 07:49:16;;;;;;;;;;;19.30;99.90;;;;;;4992684;28;19937;-79
2022/05/13 07:51:42;;;;;;;;;;;19.30;99.90;;;;;;4992750;28;19964;-79
2022/05/13 07:54:08;;;;;;;;;;;19.30;99.90;;;;;;4993041;28;19961;-79
2022/05/13 07:56:33;;;;;;;;;;;19.30;99.90;;;;;;4992998;28;19910;-79
2022/05/13 07:59:02;;;;;;;;;;;19.30;99.90;;;;;;4993637;28;20189;-79
2022/05/13 08:01:28;;;;;;;;;;;19.50;99.90;;;;;;4985218;28;19926;-79
2022/05/13 08:03:53;;;;;;;;;;;19.50;99.90;;;;;;4974325;28;19910;-79
2022/05/13 08:06:19;;;;;;;;;;;19.40;99.90;;;;;;4973992;28;20370;-79
2022/05/13 08:08:46;;;;;;;;;;;19.30;99.90;;;;;;4974416;28;19910;-79
2022/05/13 08:11:14;;;;;;;;;;;19.30;99.90;;;;;;4973881;28;19917;-79
2022/05/13 08:13:40;;;;;;;;;;;19.40;99.90;;;;;;4974042;28;20055;-79
2022/05/13 08:16:07;;;;;;;;;;;19.40;99.90;;;;;;4974370;28;19957;-79
2022/05/13 08:18:33;;;;;;;;;;;19.50;99.90;;;;;;4974774;28;19917;-79
2022/05/13 08:20:59;;;;;;;;;;;19.60;99.90;;;;;;4974523;28;19915;-80
2022/05/13 08:23:24;;;;;;;;;;;19.80;99.90;;;;;;4971276;28;19920;-79
2022/05/13 08:25:50;;;;;;;;;;;19.80;99.90;;;;;;4973206;28;19945;-80
2022/05/13 08:28:17;;;;;;;;;;;19.80;99.90;;;;;;4974244;28;19921;-80
2022/05/13 08:30:43;;;;;;;;;;;19.80;99.90;;;;;;4973829;28;19911;-81
2022/05/13 08:33:09;;;;;;;;;;;19.90;99.90;;;;;;4956395;28;19933;-81
2022/05/13 08:35:35;;;;;;;;;;;19.90;99.90;;;;;;4973474;28;20287;-80
2022/05/13 08:38:01;;;;;;;;;;;20.10;99.90;;;;;;4973193;28;19910;-81
2022/05/13 08:40:45;;;;;;;;;;;20.10;99.90;;;;;;4973241;28;19926;-80
2022/05/13 08:43:13;;;;;;;;;;;20.10;99.90;;;;;;4954657;28;19973;-80
2022/05/13 08:45:40;;;;;;;;;;;20.20;99.90;;;;;;4984277;28;19914;-81
2022/05/13 08:48:08;;;;;;;;;;;20.30;99.90;;;;;;4984261;28;19918;-80
2022/05/13 08:50:40;;;;;;;;;;;20.30;99.90;;;;;;4979362;28;20087;-80
2022/05/13 08:53:11;;;;;;;;;;;20.40;99.90;;;;;;4991112;28;19942;-79
2022/05/13 08:55:37;;;;;;;;;;;20.50;99.90;;;;;;4974129;28;19914;-79
2022/05/13 08:58:04;;;;;;;;;;;20.60;99.90;;;;;;4991896;28;19910;-79
2022/05/13 09:00:42;;;;;;;;;;;20.60;99.90;;;;;;4992132;28;19921;-79
2022/05/13 09:03:13;;;;;;;;;;;20.60;99.90;;;;;;4994554;28;20205;-80
2022/05/13 09:06:01;;;;;;;;;;;20.70;99.90;;;;;;4991764;28;20284;-79
2022/05/13 09:08:27;;;;;;;;;;;20.70;99.90;;;;;;4983445;28;20341;-80
2022/05/13 09:11:05;;;;;;;;;;;20.80;99.90;;;;;;4991868;28;19920;-80
2022/05/13 09:13:53;;;;;;;;;;;20.80;99.90;;;;;;4996286;28;19916;-79
2022/05/13 09:16:25;;;;;;;;;;;20.90;99.90;;;;;;4987927;28;19913;-79
2022/05/13 09:18:56;;;;;;;;;;;21.00;99.90;;;;;;4994900;28;20194;-80
2022/05/13 09:21:22;;;;;;;;;;;21.00;99.90;;;;;;4993193;28;20405;-79
2022/05/13 09:23:47;;;;;;;;;;;20.80;99.90;;;;;;4996861;28;19906;-80
2022/05/13 09:26:16;;;;;;;;;;;20.90;99.90;;;;;;4975354;28;19906;-79
2022/05/13 09:29:00;;;;;;;;;;;21.00;99.90;;;;;;5000393;28;19918;-79
2022/05/13 09:31:28;;;;;;;;;;;21.20;99.90;;;;;;4996401;28;19910;-82
2022/05/13 09:33:55;;;;;;;;;;;21.00;99.90;;;;;;4994732;28;19910;-90
2022/05/13 09:36:21;;;;;;;;;;;21.10;99.90;;;;;;4978028;28;19945;-89
2022/05/13 09:38:51;;;;;;;;;;;21.20;99.90;;;;;;4976491;28;20081;-92
2022/05/13 09:41:24;;;;;;;;;;;21.30;99.90;;;;;;4974153;28;20372;-89
2022/05/13 09:43:56;;;;;;;;;;;21.40;99.90;;;;;;4991718;28;19964;-89
2022/05/13 09:46:22;;;;;;;;;;;21.40;99.90;;;;;;4974831;28;19920;-89
2022/05/13 09:48:55;;;;;;;;;;;21.60;99.90;;;;;;4971409;28;19953;-90
2022/05/13 09:51:25;;;;;;;;;;;21.50;99.90;;;;;;4968300;28;19930;-91
2022/05/13 09:54:20;;;;;;;;;;;21.70;99.90;;;;;;4975563;28;19968;-90
2022/05/13 09:56:47;;;;;;;;;;;21.80;99.90;;;;;;4980143;28;19920;-91
2022/05/13 09:59:22;;;;;;;;;;;21.90;99.90;;;;;;4991193;28;19914;-89
2022/05/13 10:01:48;;;;;;;;;;;22.00;99.90;;;;;;4989597;28;19921;-89
2022/05/13 10:04:18;;;;;;;;;;;22.00;99.90;;;;;;4991462;28;19910;-89
2022/05/13 10:06:44;;;;;;;;;;;22.10;99.90;;;;;;4974549;28;19913;-89
2022/05/13 10:15:06;;;;;;;;;;;22.40;99.90;;;;;;4990820;28;19964;-90
2022/05/13 10:17:32;;;;;;;;;;;22.40;99.90;;;;;;4991699;28;20517;-86
2022/05/13 10:20:08;;;;;;;;;;;22.20;99.90;;;;;;4991394;28;20174;-89
2022/05/13 10:22:34;;;;;;;;;;;22.10;99.90;;;;;;4991221;28;20012;-89
2022/05/13 10:25:03;;;;;;;;;;;22.10;99.90;;;;;;4970201;28;19957;-90
2022/05/13 10:27:32;;;;;;;;;;;22.10;99.90;;;;;;4990868;28;20379;-88
2022/05/13 10:30:05;;;;;;;;;;;22.30;99.90;;;;;;4985135;28;19914;-87
2022/05/13 10:32:50;;;;;;;;;;;22.20;99.90;;;;;;4991009;28;19910;-89
2022/05/13 10:35:18;;;;;;;;;;;21.90;99.90;;;;;;4990930;28;19910;-87
2022/05/13 10:37:56;;;;;;;;;;;21.80;99.90;;;;;;4990411;28;19918;-87
2022/05/13 10:40:22;;;;;;;;;;;21.40;99.90;;;;;;4969985;28;19954;-88
2022/05/13 10:43:04;;;;;;;;;;;21.30;99.90;;;;;;4970694;28;19913;-89
2022/05/13 10:45:31;;;;;;;;;;;21.30;99.90;;;;;;4973971;28;19910;-89
2022/05/13 10:48:03;;;;;;;;;;;21.40;99.90;;;;;;4990968;28;19910;-89
2022/05/13 10:50:38;;;;;;;;;;;21.50;99.90;;;;;;4988798;28;20201;-88
2022/05/13 10:53:07;;;;;;;;;;;21.50;99.90;;;;;;4964121;28;20029;-88
2022/05/13 10:55:35;;;;;;;;;;;21.60;99.90;;;;;;4966152;28;19942;-91
2022/05/13 10:58:13;;;;;;;;;;;21.70;99.90;;;;;;4967686;28;19958;-88
2022/05/13 11:00:51;;;;;;;;;;;22.00;99.90;;;;;;4949386;28;19915;-88
2022/05/13 11:03:27;;;;;;;;;;;22.20;99.90;;;;;;4970702;28;20410;-88
2022/05/13 11:06:13;;;;;;;;;;;22.20;99.90;;;;;;4971297;28;19910;-87
2022/05/13 11:08:57;;;;;;;;;;;22.10;99.90;;;;;;4977095;28;19907;-86
2022/05/13 11:11:24;;;;;;;;;;;22.00;99.90;;;;;;4980862;28;19913;-87
2022/05/13 11:14:02;;;;;;;;;;;22.20;99.90;;;;;;4981644;28;19958;-86
2022/05/13 11:16:46;;;;;;;;;;;22.30;99.90;;;;;;4974907;28;20313;-79
2022/05/13 11:19:20;;;;;;;;;;;22.40;99.90;;;;;;4970482;28;20386;-78
2022/05/13 11:22:04;;;;;;;;;;;22.50;99.90;;;;;;4971000;28;19958;-79
2022/05/13 11:27:45;;;;;;;;;;;22.60;99.90;;;;;;4971256;28;19962;-79
2022/05/13 11:30:16;;;;;;;;;;;22.50;99.60;;;;;;4970606;28;19918;-79
2022/05/13 11:32:58;;;;;;;;;;;22.40;99.90;;;;;;4970312;28;20410;-79
2022/05/13 11:35:38;;;;;;;;;;;22.60;99.60;;;;;;4970610;28;20434;-79
2022/05/13 11:38:23;;;;;;;;;;;22.70;99.60;;;;;;4970866;28;19933;-79
2022/05/13 11:40:53;;;;;;;;;;;22.80;99.70;;;;;;4932148;28;19918;-79
2022/05/13 11:43:21;;;;;;;;;;;23.00;99.40;;;;;;4974537;28;19937;-79
2022/05/13 11:46:01;;;;;;;;;;;23.10;98.80;;;;;;4974201;28;19921;-78
2022/05/13 11:48:40;;;;;;;;;;;23.00;99.00;;;;;;4973785;28;20012;-79
2022/05/13 11:51:10;;;;;;;;;;;22.90;98.70;;;;;;4980549;28;19929;-78
2022/05/13 11:53:42;;;;;;;;;;;22.80;99.40;;;;;;4993014;28;19917;-79
2022/05/13 11:56:31;;;;;;;;;;;22.70;99.30;;;;;;4993227;28;20343;-78
2022/05/13 11:58:58;;;;;;;;;;;23.00;98.90;;;;;;4990001;28;19910;-78
2022/05/13 12:01:44;;;;;;;;;;;22.90;98.80;;;;;;4993201;28;19918;-78
2022/05/13 12:04:12;;;;;;;;;;;22.80;99.10;;;;;;4978315;28;20297;-79
2022/05/13 12:06:49;;;;;;;;;;;23.10;99.20;;;;;;4993548;28;19925;-78
2022/05/13 12:09:23;;;;;;;;;;;23.30;98.40;;;;;;4993936;28;19909;-78
2022/05/13 12:11:53;;;;;;;;;;;23.10;98.80;;;;;;4993890;28;20373;-79
2022/05/13 12:14:19;;;;;;;;;;;23.40;98.40;;;;;;4998094;28;20118;-79
2022/05/13 12:17:03;;;;;;;;;;;23.70;98.20;;;;;;4980842;28;19953;-79
2022/05/13 12:19:29;;;;;;;;;;;23.60;98.00;;;;;;4993315;28;19914;-78
2022/05/13 12:22:10;;;;;;;;;;;23.70;98.20;;;;;;4993107;28;19925;-78
2022/05/13 12:24:55;;;;;;;;;;;23.90;97.70;;;;;;4975012;28;19917;-79
2022/05/13 12:27:35;;;;;;;;;;;24.30;97.70;;;;;;4992994;28;20482;-79
2022/05/13 12:30:28;;;;;;;;;;;24.70;97.30;;;;;;4993274;28;19910;-79
2022/05/13 12:32:53;;;;;;;;;;;25.10;96.60;;;;;;4993200;28;20050;-79
2022/05/13 12:38:14;;;;;;;;;;;24.80;96.50;;;;;;4992314;28;20385;-79
2022/05/13 12:40:45;;;;;;;;;;;24.80;96.20;;;;;;4992199;28;19914;-78
2022/05/13 12:43:18;;;;;;;;;;;24.70;96.50;;;;;;4986642;28;20000;-79
2022/05/13 12:45:58;;;;;;;;;;;24.60;96.40;;;;;;4993368;28;19910;-79
2022/05/13 12:48:23;;;;;;;;;;;24.50;96.80;;;;;;4992120;28;19914;-79
2022/05/13 12:50:50;;;;;;;;;;;24.60;96.50;;;;;;4990918;28;19918;-79
2022/05/13 12:53:31;;;;;;;;;;;24.50;96.50;;;;;;4991928;28;20422;-79
2022/05/13 12:55:58;;;;;;;;;;;24.50;97.00;;;;;;4991902;28;19945;-79
2022/05/13 12:58:24;;;;;;;;;;;24.60;96.60;;;;;;4992036;28;20420;-79
2022/05/13 13:00:51;;;;;;;;;;;24.70;96.60;;;;;;4991836;28;20029;-79
2022/05/13 13:03:18;;;;;;;;;;;24.90;96.00;;;;;;4974548;28;20314;-79
2022/05/13 13:05:50;;;;;;;;;;;25.20;95.70;;;;;;4991763;28;19914;-79
2022/05/13 13:08:22;;;;;;;;;;;25.50;95.50;;;;;;4992219;28;19910;-79
2022/05/13 13:11:00;;;;;;;;;;;25.20;95.50;;;;;;4992228;28;19910;-79
2022/05/13 13:13:26;;;;;;;;;;;25.40;95.30;;;;;;4991578;28;19910;-79
2022/05/13 13:15:56;;;;;;;;;;;26.20;95.00;;;;;;4994625;28;19917;-79
2022/05/13 13:18:32;;;;;;;;;;;26.20;94.50;;;;;;4994651;28;20318;-79
2022/05/13 13:21:00;;;;;;;;;;;26.00;94.60;;;;;;4996402;28;20004;-79
2022/05/13 13:23:27;;;;;;;;;;;26.30;94.30;;;;;;4994080;28;19988;-79
2022/05/13 13:25:53;;;;;;;;;;;26.70;94.20;;;;;;4994559;28;20223;-79
2022/05/13 13:28:28;;;;;;;;;;;26.70;93.80;;;;;;4993287;28;20004;-79
2022/05/13 13:30:58;;;;;;;;;;;26.60;94.10;;;;;;4991734;28;19914;-79
2022/05/13 13:33:30;;;;;;;;;;;26.50;94.00;;;;;;4996065;28;19982;-79
2022/05/13 13:36:12;;;;;;;;;;;26.60;94.00;;;;;;4994008;28;19973;-79
2022/05/13 13:38:39;;;;;;;;;;;26.70;94.10;;;;;;4991257;28;19914;-79
2022/05/13 13:41:05;;;;;;;;;;;27.50;93.60;;;;;;4992493;28;20126;-79
2022/05/13 13:43:33;;;;;;;;;;;27.70;93.40;;;;;;4993488;28;19913;-79
2022/05/13 13:46:05;;;;;;;;;;;27.70;93.50;;;;;;4996884;28;20369;-79
2022/05/13 13:48:37;;;;;;;;;;;28.90;92.60;;;;;;4991695;28;19910;-79
2022/05/13 13:51:03;;;;;;;;;;;29.90;91.70;;;;;;4992576;28;19913;-79
2022/05/13 13:53:31;;;;;;;;;;;31.40;90.60;;;;;;4991130;28;20278;-79
2022/05/13 13:56:03;;;;;;;;;;;31.40;90.60;;;;;;4991483;28;19925;-79
2022/05/13 13:58:32;;;;;;;;;;;32.70;89.30;;;;;;4992159;28;19910;-79
2022/05/13 14:01:06;;;;;;;;;;;33.40;88.60;;;;;;4991836;28;20192;-79
2022/05/13 14:03:31;;;;;;;;;;;34.30;86.80;;;;;;4991005;28;19917;-79
2022/05/13 14:05:58;;;;;;;;;;;35.00;85.10;;;;;;4992098;28;19914;-79
2022/05/13 14:08:25;;;;;;;;;;;34.70;85.60;;;;;;4990914;28;19906;-79
2022/05/13 14:11:00;;;;;;;;;;;34.70;85.30;;;;;;4990695;28;20421;-79
2022/05/13 14:13:44;;;;;;;;;;;33.80;83.30;;;;;;4991553;28;20007;-79
2022/05/13 14:16:12;;;;;;;;;;;33.80;83.00;;;;;;4991398;28;20310;-79
2022/05/13 14:18:38;;;;;;;;;;;33.40;83.20;;;;;;4990581;28;20449;-79
2022/05/13 14:21:12;;;;;;;;;;;33.40;83.30;;;;;;4991264;28;19980;-79
2022/05/13 14:23:38;;;;;;;;;;;33.00;84.00;;;;;;4986493;28;19914;-79
2022/05/13 14:26:04;;;;;;;;;;;33.30;83.90;;;;;;4990948;28;19909;-79
2022/05/13 14:28:33;;;;;;;;;;;33.70;83.50;;;;;;4990464;28;19910;-79
2022/05/13 14:31:04;;;;;;;;;;;34.70;82.20;;;;;;4991119;28;19914;-79
2022/05/13 14:33:30;;;;;;;;;;;34.80;81.60;;;;;;4994492;28;19914;-79
2022/05/13 14:36:06;;;;;;;;;;;34.30;81.70;;;;;;4993841;28;19927;-79
2022/05/13 14:41:27;;;;;;;;;;;34.40;82.80;;;;;;4994318;28;19925;-79
2022/05/13 14:43:55;;;;;;;;;;;36.00;81.70;;;;;;4995216;28;20346;-79
2022/05/13 14:46:24;;;;;;;;;;;35.70;79.70;;;;;;4978520;28;19910;-79
2022/05/13 14:48:49;;;;;;;;;;;35.80;79.90;;;;;;4976231;28;19910;-79
2022/05/13 14:51:15;;;;;;;;;;;34.70;80.20;;;;;;4989978;28;19996;-79
2022/05/13 14:53:52;;;;;;;;;;;33.80;81.80;;;;;;4991619;28;19942;-79
2022/05/13 14:56:18;;;;;;;;;;;34.40;81.50;;;;;;4965895;28;19937;-79
2022/05/13 14:58:53;;;;;;;;;;;36.00;80.40;;;;;;4971336;28;20363;-79